Time;durP1;ratioP1;P1;durP2;ratioP2;P2;SDS_P1;SDS_P2;PMS_P1;PMS_P2;Temp;Humidity;BMP_temperature;BMP_pressure;BME280_temperature;BME280_humidity;BME280_pressure;Samples;Min_cycle;Max_cycle;Signal;HPM_P1;HPM_P2
2022/09/23 00:01:18;;;;;;;8.20;4.47;;;;;;;13.45;48.45;99962.63;4494545;31;33615;-63
2022/09/23 00:03:48;;;;;;;7.53;4.18;;;;;;;13.33;48.79;99958.28;4491166;31;32474;-63
2022/09/23 00:06:18;;;;;;;7.60;3.87;;;;;;;13.19;48.87;99961.19;4496345;31;33351;-63
2022/09/23 00:08:46;;;;;;;8.20;5.43;;;;;;;13.15;48.99;99963.28;4497410;31;33828;-63
2022/09/23 00:11:19;;;;;;;7.60;4.87;;;;;;;13.12;49.05;99966.22;4495049;31;33987;-63
2022/09/23 00:13:48;;;;;;;7.20;4.07;;;;;;;13.17;48.96;99964.03;4491556;31;34152;-63
2022/09/23 00:16:18;;;;;;;7.93;4.65;;;;;;;13.13;49.07;99964.38;4489063;31;32811;-63
2022/09/23 00:18:48;;;;;;;7.72;3.97;;;;;;;13.16;48.76;99958.75;4489936;31;33914;-63
2022/09/23 00:21:18;;;;;;;5.43;3.40;;;;;;;13.05;49.13;99956.97;4496942;31;33838;-63
2022/09/23 00:23:46;;;;;;;7.18;3.75;;;;;;;12.95;49.40;99951.50;4484682;31;32844;-63
2022/09/23 00:26:15;;;;;;;8.50;4.07;;;;;;;12.79;49.92;99948.34;4490341;31;33311;-62
2022/09/23 00:28:43;;;;;;;8.05;5.68;;;;;;;12.87;49.68;99950.38;4493680;31;33418;-62
2022/09/23 00:31:14;;;;;;;6.35;3.10;;;;;;;12.90;49.29;99950.16;4496879;31;34046;-63
2022/09/23 00:33:42;;;;;;;7.12;4.60;;;;;;;12.77;49.64;99943.06;4495450;31;33663;-62
2022/09/23 00:36:16;;;;;;;6.68;3.62;;;;;;;12.69;50.46;99945.53;4492945;31;34434;-62
2022/09/23 00:38:44;;;;;;;8.50;4.72;;;;;;;12.52;50.29;99937.97;4494006;31;34912;-62
2022/09/23 00:41:15;;;;;;;8.73;4.18;;;;;;;12.53;49.80;99939.69;4497123;31;35190;-62
2022/09/23 00:43:46;;;;;;;9.80;5.35;;;;;;;12.54;49.87;99938.72;4494814;31;32358;-62
2022/09/23 00:46:17;;;;;;;11.65;4.82;;;;;;;12.59;50.08;99936.53;4490795;31;33401;-62
2022/09/23 00:48:47;;;;;;;7.93;4.60;;;;;;;12.60;49.91;99932.84;4488056;31;33723;-62
2022/09/23 00:51:19;;;;;;;6.90;4.00;;;;;;;12.53;50.10;99932.50;4490033;31;33076;-63
2022/09/23 00:53:47;;;;;;;9.25;5.32;;;;;;;12.42;50.29;99928.94;4491866;31;33625;-62
2022/09/23 00:56:15;;;;;;;8.35;4.30;;;;;;;12.51;50.04;99931.75;4489434;31;33075;-63
2022/09/23 00:58:44;;;;;;;7.07;4.53;;;;;;;12.56;49.92;99926.88;4488178;31;34842;-63
2022/09/23 01:01:15;;;;;;;5.78;3.72;;;;;;;12.57;50.00;99925.03;4489478;31;33912;-63
2022/09/23 01:03:44;;;;;;;9.90;4.03;;;;;;;12.52;50.12;99929.91;4495755;31;34534;-63
2022/09/23 01:06:12;;;;;;;6.40;4.07;;;;;;;12.50;50.00;99929.19;4490189;31;33142;-63
2022/09/23 01:08:43;;;;;;;5.90;3.40;;;;;;;12.56;50.10;99926.88;4496294;31;34017;-63
2022/09/23 01:11:26;;;;;;;7.95;5.28;;;;;;;12.68;49.57;99929.53;4484651;31;34290;-62
2022/09/23 01:14:19;;;;;;;6.00;3.78;;;;;;;12.57;49.79;99927.72;4496283;31;33807;-63
2022/09/23 01:17:15;;;;;;;6.60;3.70;;;;;;;12.56;50.07;99934.94;4495490;31;33444;-63
2022/09/23 01:20:05;;;;;;;7.25;5.00;;;;;;;12.53;50.31;99940.53;4492837;31;34809;-63
2022/09/23 01:23:04;;;;;;;6.15;3.60;;;;;;;12.61;49.71;99926.50;4483232;31;34075;-63
2022/09/23 01:25:36;;;;;;;8.10;5.55;;;;;;;12.53;49.60;99931.63;4483862;31;32270;-63
2022/09/23 01:28:41;;;;;;;7.68;4.07;;;;;;;12.47;49.71;99937.50;4481989;31;33409;-63
2022/09/23 01:31:08;;;;;;;6.37;3.58;;;;;;;12.44;49.75;99930.53;4494643;31;33556;-62
2022/09/23 01:33:55;;;;;;;6.68;4.53;;;;;;;12.38;49.86;99930.16;4482619;31;32373;-62
2022/09/23 01:36:33;;;;;;;7.70;4.65;;;;;;;12.39;49.63;99926.50;4489409;31;34229;-63
2022/09/23 01:39:10;;;;;;;9.43;5.10;;;;;;;12.35;49.55;99931.25;4485242;31;33193;-62
2022/09/23 01:41:50;;;;;;;8.18;4.22;;;;;;;12.41;49.53;99937.97;4492578;31;33900;-62
2022/09/23 01:44:23;;;;;;;6.32;4.03;;;;;;;12.32;49.81;99926.13;4491573;31;34171;-63
2022/09/23 01:46:54;;;;;;;7.37;4.12;;;;;;;12.38;49.80;99931.00;4488066;31;33954;-62
2022/09/23 01:49:33;;;;;;;9.43;4.50;;;;;;;12.40;49.71;99930.91;4492450;31;33114;-62
2022/09/23 01:52:29;;;;;;;6.47;4.12;;;;;;;12.30;50.21;99931.63;4488033;31;34690;-62
2022/09/23 01:55:05;;;;;;;7.95;4.43;;;;;;;12.40;50.00;99929.06;4497967;31;33736;-63
2022/09/23 01:57:37;;;;;;;7.55;5.18;;;;;;;12.47;49.36;99932.13;4498340;31;33531;-64
2022/09/23 02:00:14;;;;;;;7.93;4.62;;;;;;;12.42;49.10;99928.94;4490117;31;34071;-65
2022/09/23 02:02:48;;;;;;;9.35;5.90;;;;;;;12.31;49.45;99936.03;4490641;31;33773;-64
2022/09/23 02:05:49;;;;;;;6.35;4.28;;;;;;;12.28;49.79;99922.84;4485189;31;32619;-63
2022/09/23 02:08:21;;;;;;;6.80;4.87;;;;;;;12.24;50.22;99926.75;4479000;31;32445;-63
2022/09/23 02:10:52;;;;;;;6.78;3.60;;;;;;;12.11;50.68;99929.53;4488263;31;35110;-63
2022/09/23 02:13:53;;;;;;;7.80;4.87;;;;;;;12.18;49.65;99926.38;4485058;31;33966;-64
2022/09/23 02:16:33;;;;;;;7.78;4.40;;;;;;;12.19;49.71;99920.03;4485983;31;33888;-64
2022/09/23 02:19:03;;;;;;;7.32;4.47;;;;;;;12.18;50.00;99921.88;4485461;31;32092;-64
2022/09/23 02:21:37;;;;;;;9.32;5.82;;;;;;;12.21;50.26;99931.50;4479413;31;34137;-64
2022/09/23 02:24:13;;;;;;;7.73;4.57;;;;;;;12.09;50.91;99930.63;4484823;31;35061;-64
2022/09/23 02:26:46;;;;;;;;;;;;;;;12.28;50.47;99927.34;4487321;31;34075;-64
2022/09/23 02:29:26;;;;;;;7.53;3.60;;;;;;;12.25;50.38;99928.44;4491048;31;35588;-64
2022/09/23 02:32:14;;;;;;;8.45;3.72;;;;;;;12.04;51.18;99920.28;4490811;31;32891;-64
2022/09/23 02:34:45;;;;;;;11.63;4.80;;;;;;;12.11;50.25;99924.19;4487116;31;33440;-64
2022/09/23 02:37:42;;;;;;;7.35;4.37;;;;;;;12.03;50.53;99920.38;4477560;31;34098;-64
2022/09/23 02:40:37;;;;;;;6.53;4.00;;;;;;;11.94;50.91;99931.81;4481412;31;34601;-62
2022/09/23 02:43:05;;;;;;;9.20;5.25;;;;;;;11.70;51.22;99929.19;4485586;31;33371;-62
2022/09/23 02:45:32;;;;;;;7.93;6.00;;;;;;;11.72;50.94;99921.84;4494609;31;33769;-62
2022/09/23 02:48:13;;;;;;;5.70;3.87;;;;;;;11.82;50.46;99922.88;4488314;31;34005;-62
2022/09/23 02:50:41;;;;;;;8.32;4.32;;;;;;;11.91;50.61;99927.56;4491027;31;34648;-62
2022/09/23 02:53:09;;;;;;;7.05;4.68;;;;;;;11.98;50.17;99927.94;4494997;31;33335;-62
2022/09/23 02:55:36;;;;;;;8.23;5.07;;;;;;;11.97;49.93;99921.69;4493917;31;33806;-61
2022/09/23 02:58:05;;;;;;;9.07;5.93;;;;;;;12.01;49.85;99925.03;4491894;31;33655;-65
2022/09/23 03:01:03;;;;;;;6.68;4.10;;;;;;;11.76;50.01;99928.72;4493202;31;33448;-64
2022/09/23 03:03:48;;;;;;;8.00;4.35;;;;;;;11.78;50.32;99934.78;4487945;31;34534;-63
2022/09/23 03:06:32;;;;;;;9.80;4.35;;;;;;;11.76;51.18;99928.72;4488451;31;34754;-62
2022/09/23 03:09:03;;;;;;;6.05;4.00;;;;;;;11.74;50.71;99920.75;4489182;31;33805;-62
2022/09/23 03:11:34;;;;;;;6.70;4.20;;;;;;;11.76;51.17;99926.03;4493956;31;33653;-62
2022/09/23 03:14:16;;;;;;;8.95;5.75;;;;;;;11.70;51.38;99924.66;4480544;31;33202;-62
2022/09/23 03:16:54;;;;;;;7.20;3.72;;;;;;;11.86;51.08;99922.53;4497131;31;32636;-62
2022/09/23 03:19:47;;;;;;;8.93;4.47;;;;;;;11.96;50.66;99928.03;4491957;31;35102;-62
2022/09/23 03:22:26;;;;;;;9.80;5.90;;;;;;;12.02;50.27;99934.78;4492606;31;33803;-62
2022/09/23 03:24:54;;;;;;;9.65;4.30;;;;;;;12.03;50.10;99923.91;4493506;31;33280;-62
2022/09/23 03:27:25;;;;;;;8.45;4.60;;;;;;;12.02;50.18;99924.87;4487763;31;35122;-62
2022/09/23 03:29:54;;;;;;;9.13;5.40;;;;;;;12.07;49.73;99925.41;4485124;31;34906;-62
2022/09/23 03:32:26;;;;;;;6.93;3.67;;;;;;;11.88;49.85;99933.16;4495325;31;34683;-62
2022/09/23 03:34:55;;;;;;;6.35;3.55;;;;;;;12.02;49.47;99924.03;4481422;31;33119;-62
2022/09/23 03:37:37;;;;;;;6.55;3.97;;;;;;;12.03;49.46;99929.28;4482851;31;33610;-61
2022/09/23 03:40:19;;;;;;;8.73;5.10;;;;;;;12.02;49.50;99921.34;4491772;31;35093;-61
2022/09/23 03:42:50;;;;;;;6.32;3.90;;;;;;;11.72;51.96;99924.53;4492280;31;34871;-61
2022/09/23 03:45:21;;;;;;;7.03;3.92;;;;;;;11.87;51.41;99926.91;4494739;31;33087;-61
2022/09/23 03:47:49;;;;;;;9.10;5.18;;;;;;;11.85;50.92;99922.69;4492659;31;33608;-61
2022/09/23 03:50:16;;;;;;;7.43;4.07;;;;;;;11.98;49.98;99923.44;4486991;31;34858;-61
2022/09/23 03:52:45;;;;;;;8.02;4.57;;;;;;;11.92;50.03;99928.41;4492786;31;33791;-61
2022/09/23 03:55:13;;;;;;;9.02;4.72;;;;;;;11.66;50.77;99923.19;4495583;31;34011;-62
2022/09/23 03:57:40;;;;;;;7.68;4.57;;;;;;;11.34;51.47;99921.12;4495516;31;34924;-61
2022/09/23 04:00:09;;;;;;;8.63;4.97;;;;;;;11.22;52.28;99923.88;4491028;31;34024;-62
2022/09/23 04:02:38;;;;;;;8.23;4.97;;;;;;;11.33;52.34;99929.25;4494255;31;33765;-62
2022/09/23 04:05:06;;;;;;;8.02;4.70;;;;;;;11.48;51.96;99928.12;4495009;31;33043;-61
2022/09/23 04:07:34;;;;;;;7.32;4.32;;;;;;;11.35;52.15;99921.97;4485606;31;32419;-61
2022/09/23 04:10:03;;;;;;;7.22;4.55;;;;;;;11.39;51.62;99928.81;4491670;31;33913;-62
2022/09/23 04:12:31;;;;;;;8.25;4.37;;;;;;;11.43;51.45;99931.16;4496068;31;33886;-62
2022/09/23 04:14:58;;;;;;;6.30;4.32;;;;;;;11.50;51.26;99928.88;4492695;31;33373;-62
2022/09/23 04:17:26;;;;;;;7.32;3.87;;;;;;;11.46;51.48;99931.87;4492378;31;33758;-62
2022/09/23 04:19:54;;;;;;;9.52;5.78;;;;;;;11.53;51.30;99930.47;4489775;31;35269;-62
2022/09/23 04:22:21;;;;;;;7.20;4.60;;;;;;;11.60;51.22;99929.03;4492617;31;33612;-62
2022/09/23 04:24:49;;;;;;;9.52;5.80;;;;;;;11.52;51.60;99926.06;4493944;31;34260;-62
2022/09/23 04:27:17;;;;;;;6.50;3.67;;;;;;;11.47;51.41;99923.75;4490124;31;33681;-62
2022/09/23 04:29:44;;;;;;;11.60;6.85;;;;;;;11.36;51.97;99924.56;4487660;31;33868;-62
2022/09/23 04:32:12;;;;;;;6.00;3.30;;;;;;;11.37;52.00;99928.94;4492033;31;34373;-62
2022/09/23 04:34:40;;;;;;;10.05;6.30;;;;;;;11.53;51.40;99928.62;4494210;31;32090;-62
2022/09/23 04:37:07;;;;;;;8.90;5.22;;;;;;;11.42;52.63;99933.94;4493193;31;33569;-62
2022/09/23 04:39:35;;;;;;;8.02;4.80;;;;;;;11.46;52.13;99938.13;4485710;31;33669;-62
2022/09/23 04:42:03;;;;;;;6.22;4.22;;;;;;;11.65;51.18;99943.78;4490065;31;33804;-62
2022/09/23 04:44:30;;;;;;;10.65;5.28;;;;;;;11.72;51.45;99944.19;4493932;31;33761;-61
2022/09/23 04:46:58;;;;;;;7.45;5.78;;;;;;;11.76;51.48;99947.47;4491797;31;34288;-62
2022/09/23 04:49:25;;;;;;;7.90;5.05;;;;;;;11.83;51.07;99952.25;4494828;31;33709;-62
2022/09/23 04:51:53;;;;;;;9.07;4.70;;;;;;;11.82;51.71;99952.38;4494420;31;32495;-62
2022/09/23 04:54:20;;;;;;;7.28;4.28;;;;;;;11.95;50.70;99942.44;4494132;31;33330;-61
2022/09/23 04:56:48;;;;;;;7.72;5.03;;;;;;;11.96;51.02;99941.47;4493143;31;33703;-62
2022/09/23 04:59:15;;;;;;;7.47;4.43;;;;;;;12.06;49.89;99947.81;4490861;31;35126;-61
2022/09/23 05:01:43;;;;;;;7.65;4.43;;;;;;;12.15;49.73;99946.25;4492881;31;32417;-62
2022/09/23 05:04:12;;;;;;;9.40;4.15;;;;;;;12.31;49.31;99954.81;4490902;31;31845;-61
2022/09/23 05:06:43;;;;;;;8.00;4.55;;;;;;;12.46;49.09;99960.81;4489849;31;34831;-62
2022/09/23 05:09:15;;;;;;;7.43;4.85;;;;;;;12.48;49.23;99956.16;4488523;31;33918;-61
2022/09/23 05:11:43;;;;;;;9.80;5.75;;;;;;;12.32;50.99;99964.56;4484631;31;33508;-62
2022/09/23 05:14:10;;;;;;;9.68;5.07;;;;;;;12.26;51.19;99964.19;4489651;31;32324;-62
2022/09/23 05:16:38;;;;;;;9.75;6.07;;;;;;;12.56;49.97;99974.34;4492602;31;34958;-61
2022/09/23 05:19:05;;;;;;;10.55;6.32;;;;;;;12.68;49.48;99965.31;4492545;31;32754;-62
2022/09/23 05:21:34;;;;;;;9.57;6.28;;;;;;;12.61;49.51;99969.44;4496898;31;33831;-62
2022/09/23 05:24:01;;;;;;;9.07;6.35;;;;;;;12.54;49.84;99965.56;4486561;31;34298;-62
2022/09/23 05:26:30;;;;;;;10.80;6.68;;;;;;;12.56;49.97;99971.66;4498006;31;33691;-61
2022/09/23 05:28:58;;;;;;;10.73;6.47;;;;;;;12.57;50.25;99962.63;4488825;31;33801;-61
2022/09/23 05:31:28;;;;;;;7.87;5.10;;;;;;;12.52;50.57;99972.88;4491297;31;32244;-61
2022/09/23 05:33:58;;;;;;;11.45;7.25;;;;;;;12.62;50.39;99975.72;4493659;31;32079;-61
2022/09/23 05:36:27;;;;;;;7.35;4.82;;;;;;;12.55;50.62;99969.94;4492375;31;33668;-62
2022/09/23 05:38:57;;;;;;;13.95;7.47;;;;;;;12.71;50.95;99974.94;4493971;31;32712;-62
2022/09/23 05:41:26;;;;;;;12.98;6.20;;;;;;;12.71;51.29;99980.31;4494816;31;33092;-62
2022/09/23 05:43:54;;;;;;;11.20;7.07;;;;;;;12.88;50.51;99982.53;4492925;31;34156;-61
2022/09/23 05:46:26;;;;;;;9.10;5.85;;;;;;;12.84;50.91;99983.75;4496554;31;34563;-61
2022/09/23 05:48:55;;;;;;;10.20;6.72;;;;;;;12.94;50.97;99973.97;4494170;31;34973;-61
2022/09/23 05:51:30;;;;;;;14.13;7.53;;;;;;;13.02;50.55;99971.50;4495922;31;33849;-62
2022/09/23 05:53:59;;;;;;;14.05;6.22;;;;;;;13.03;51.12;99967.84;4497413;31;34516;-62
2022/09/23 05:56:27;;;;;;;9.23;5.75;;;;;;;13.15;51.76;99967.81;4495854;31;32690;-62
2022/09/23 05:58:57;;;;;;;13.15;7.57;;;;;;;13.21;51.70;99970.00;4487560;31;35139;-62
2022/09/23 06:01:33;;;;;;;14.02;7.72;;;;;;;13.31;50.66;99970.97;4494948;31;33633;-61
2022/09/23 06:04:03;;;;;;;11.57;7.20;;;;;;;13.46;50.31;99971.56;4497760;31;32802;-61
2022/09/23 06:06:36;;;;;;;11.20;7.35;;;;;;;13.52;50.06;99971.03;4490457;31;33123;-62
2022/09/23 06:09:05;;;;;;;12.25;7.00;;;;;;;13.56;50.69;99972.50;4488757;31;35379;-62
2022/09/23 06:11:34;;;;;;;11.40;7.20;;;;;;;13.62;51.37;99973.81;4492479;31;34767;-62
2022/09/23 06:14:02;;;;;;;14.38;6.75;;;;;;;13.59;52.64;99972.22;4487528;31;33400;-61
2022/09/23 06:16:33;;;;;;;10.70;6.95;;;;;;;13.72;52.69;99969.38;4487785;31;34621;-61
2022/09/23 06:19:04;;;;;;;10.82;7.10;;;;;;;13.98;51.79;99983.28;4495258;31;33193;-62
2022/09/23 06:21:35;;;;;;;10.57;6.35;;;;;;;13.96;52.08;99979.88;4501322;31;33939;-62
2022/09/23 06:24:02;;;;;;;10.52;7.37;;;;;;;14.13;52.10;99984.69;4495645;31;31928;-62
2022/09/23 06:26:33;;;;;;;11.05;7.22;;;;;;;14.64;50.58;99974.94;4499803;31;34676;-61
2022/09/23 06:29:12;;;;;;;12.05;7.70;;;;;;;15.20;48.44;99974.41;4494629;31;32801;-62
2022/09/23 06:31:40;;;;;;;12.23;8.25;;;;;;;15.26;48.75;99973.00;4497536;31;34801;-61
2022/09/23 06:34:10;;;;;;;12.82;7.60;;;;;;;15.03;48.87;99978.63;4495035;31;33378;-61
2022/09/23 06:36:43;;;;;;;13.00;8.25;;;;;;;15.15;49.45;99976.63;4500895;31;34589;-62
2022/09/23 06:39:13;;;;;;;12.68;7.68;;;;;;;15.17;50.24;99974.66;4497181;31;35351;-62
2022/09/23 06:41:42;;;;;;;13.85;7.62;;;;;;;14.59;52.36;99979.88;4499399;31;33881;-62
2022/09/23 06:44:14;;;;;;;12.02;7.50;;;;;;;14.82;51.54;99980.53;4494815;31;34068;-62
2022/09/23 06:46:42;;;;;;;12.35;7.87;;;;;;;15.00;51.00;99989.69;4493914;31;33969;-62
2022/09/23 06:49:11;;;;;;;10.82;7.15;;;;;;;15.25;49.85;99996.41;4496213;31;34935;-62
2022/09/23 06:51:39;;;;;;;10.85;7.75;;;;;;;15.23;50.22;99984.91;4492081;31;33522;-62
2022/09/23 06:54:07;;;;;;;10.35;7.37;;;;;;;15.34;49.89;99986.63;4495841;31;36209;-62
2022/09/23 06:56:35;;;;;;;9.43;6.35;;;;;;;15.36;50.03;99982.78;4498022;31;33656;-62
2022/09/23 06:59:08;;;;;;;8.75;6.68;;;;;;;15.26;51.10;99983.78;4498023;31;35120;-62
2022/09/23 07:01:36;;;;;;;9.80;6.15;;;;;;;15.42;50.39;99984.09;4488677;31;32225;-61
2022/09/23 07:04:06;;;;;;;7.65;5.30;;;;;;;15.17;51.05;99985.47;4496579;31;33194;-62
2022/09/23 07:06:34;;;;;;;9.43;6.22;;;;;;;15.16;50.99;99986.47;4494732;31;32425;-62
2022/09/23 07:09:03;;;;;;;8.88;5.70;;;;;;;15.57;50.40;99984.53;4497952;31;34160;-62
2022/09/23 07:11:30;;;;;;;7.50;4.93;;;;;;;15.50;51.31;99978.81;4486287;31;33727;-62
2022/09/23 07:13:58;;;;;;;9.18;5.60;;;;;;;15.59;50.60;99974.44;4492898;31;31952;-62
2022/09/23 07:16:25;;;;;;;10.38;5.70;;;;;;;15.46;51.50;99985.50;4495633;31;32560;-62
2022/09/23 07:18:53;;;;;;;16.23;6.50;;;;;;;15.50;50.16;99984.22;4492310;31;35191;-62
2022/09/23 07:21:21;;;;;;;8.13;5.35;;;;;;;15.43;50.30;99988.47;4498190;31;34635;-61
2022/09/23 07:23:50;;;;;;;9.73;5.87;;;;;;;15.85;48.86;99988.25;4496976;31;33493;-62
2022/09/23 07:26:19;;;;;;;10.70;6.37;;;;;;;15.49;50.05;99985.22;4495426;31;33744;-62
2022/09/23 07:28:46;;;;;;;7.20;5.07;;;;;;;15.79;49.87;99994.22;4495978;31;33909;-62
2022/09/23 07:31:16;;;;;;;8.05;5.20;;;;;;;15.81;49.64;99993.09;4494862;31;33749;-62
2022/09/23 07:34:01;;;;;;;8.27;5.62;;;;;;;15.94;49.51;99992.78;4492575;31;33186;-62
2022/09/23 07:36:31;;;;;;;9.45;5.53;;;;;;;15.75;49.27;99998.19;4496875;31;33298;-61
2022/09/23 07:39:02;;;;;;;8.43;5.00;;;;;;;15.78;49.10;99992.53;4489239;31;33767;-62
2022/09/23 07:41:31;;;;;;;8.48;5.43;;;;;;;15.40;50.85;100004.94;4497503;31;32407;-62
2022/09/23 07:44:00;;;;;;;7.65;5.10;;;;;;;15.68;50.32;99997.06;4499466;31;33349;-62
2022/09/23 07:46:32;;;;;;;11.98;7.05;;;;;;;15.63;49.42;99992.03;4492231;31;33850;-62
2022/09/23 07:49:02;;;;;;;8.38;5.55;;;;;;;15.52;50.94;99995.75;4491289;31;34267;-61
2022/09/23 07:51:34;;;;;;;8.32;5.43;;;;;;;15.35;50.51;99997.28;4499555;31;32784;-62
2022/09/23 07:54:06;;;;;;;8.85;6.00;;;;;;;15.50;50.24;99995.00;4500198;31;34162;-62
2022/09/23 07:56:35;;;;;;;7.78;5.22;;;;;;;15.55;51.31;99994.63;4499477;31;33890;-61
2022/09/23 07:59:04;;;;;;;8.02;5.40;;;;;;;15.71;51.54;99996.78;4498342;31;34975;-61
2022/09/23 08:01:37;;;;;;;9.77;6.05;;;;;;;16.02;51.48;99992.94;4493013;31;33352;-62
2022/09/23 08:04:11;;;;;;;8.20;5.18;;;;;;;15.64;51.21;99993.78;4483521;31;33043;-63
2022/09/23 08:06:46;;;;;;;8.10;5.05;;;;;;;15.90;50.74;99991.38;4497502;31;35071;-62
2022/09/23 08:09:15;;;;;;;7.25;4.53;;;;;;;16.02;51.27;99994.78;4489959;31;33979;-62
2022/09/23 08:11:43;;;;;;;7.72;4.95;;;;;;;16.19;48.33;99993.22;4484031;31;33626;-61
2022/09/23 08:14:12;;;;;;;6.75;4.65;;;;;;;15.87;49.09;99996.22;4495484;31;34236;-62
2022/09/23 08:16:40;;;;;;;7.43;4.90;;;;;;;15.84;49.12;99997.34;4491368;31;33853;-62
2022/09/23 08:19:08;;;;;;;8.75;3.70;;;;;;;15.61;50.00;99989.50;4497943;31;32985;-62
2022/09/23 08:21:38;;;;;;;7.40;4.00;;;;;;;15.76;48.12;99994.50;4496281;31;32621;-61
2022/09/23 08:24:14;;;;;;;7.55;4.65;;;;;;;15.35;50.30;99996.44;4497419;31;32049;-61
2022/09/23 08:26:42;;;;;;;5.93;4.30;;;;;;;15.54;48.74;99998.31;4497044;31;35045;-61
2022/09/23 08:29:12;;;;;;;7.10;4.75;;;;;;;15.91;48.43;99987.69;4497183;31;35148;-61
2022/09/23 08:31:40;;;;;;;6.25;4.55;;;;;;;16.26;48.07;99997.03;4492342;31;33603;-61
2022/09/23 08:34:07;;;;;;;8.70;5.60;;;;;;;16.18;48.55;99992.34;4497016;31;34565;-61
2022/09/23 08:36:35;;;;;;;8.82;6.07;;;;;;;15.87;49.54;99985.44;4495233;31;32851;-61
2022/09/23 08:39:03;;;;;;;8.57;5.68;;;;;;;15.89;50.27;99983.41;4494400;31;33914;-61
2022/09/23 08:41:53;;;;;;;7.97;5.62;;;;;;;16.12;49.47;99984.84;4488216;31;33365;-61
2022/09/23 08:44:47;;;;;;;12.77;7.28;;;;;;;16.46;49.13;99981.62;4494242;31;34458;-61
2022/09/23 08:47:23;;;;;;;9.07;7.47;;;;;;;16.33;49.68;99992.75;4491898;31;33936;-61
2022/09/23 08:50:07;;;;;;;11.63;7.95;;;;;;;16.66;48.50;99991.38;4486649;31;33758;-61
2022/09/23 08:52:41;;;;;;;10.93;7.30;;;;;;;16.76;48.04;99981.41;4488311;31;34696;-61
2022/09/23 08:55:11;;;;;;;10.32;7.15;;;;;;;16.84;47.45;99986.06;4494156;31;34524;-61
2022/09/23 08:58:00;;;;;;;10.15;6.82;;;;;;;16.86;47.72;99983.22;4491540;31;32255;-61
2022/09/23 09:00:55;;;;;;;9.75;6.90;;;;;;;16.64;48.34;99981.72;4486053;31;34908;-61
2022/09/23 09:07:30;;;;;;;11.82;7.15;;;;;;;16.76;47.90;99975.16;4493896;31;34138;-62
2022/09/23 09:10:16;;;;;;;10.43;7.10;;;;;;;16.40;49.44;99983.03;4493958;31;33569;-61
2022/09/23 09:12:46;;;;;;;13.13;7.70;;;;;;;16.94;47.99;99976.03;4497178;31;35176;-61
2022/09/23 09:15:18;;;;;;;12.60;7.55;;;;;;;16.87;47.83;99987.63;4495433;31;32507;-61
2022/09/23 09:18:08;;;;;;;12.02;7.15;;;;;;;17.10;47.77;99983.50;4483600;31;33384;-61
2022/09/23 09:20:39;;;;;;;9.82;6.70;;;;;;;16.78;48.47;99981.25;4498606;31;32189;-61
2022/09/23 09:23:33;;;;;;;10.38;7.10;;;;;;;17.22;47.06;99979.59;4497399;31;33069;-62
2022/09/23 09:26:02;;;;;;;9.20;6.65;;;;;;;17.23;46.88;99981.28;4489219;31;32261;-61
2022/09/23 09:28:47;;;;;;;9.60;6.95;;;;;;;16.45;48.73;99978.06;4490330;31;33044;-62
2022/09/23 09:31:32;;;;;;;13.10;7.60;;;;;;;16.69;48.43;99974.00;4493314;31;34771;-61
2022/09/23 09:34:10;;;;;;;11.32;6.87;;;;;;;17.04;47.46;99967.03;4483875;31;35186;-61
2022/09/23 09:36:47;;;;;;;10.57;7.25;;;;;;;17.00;47.58;99966.50;4492188;31;32476;-61
2022/09/23 09:39:15;;;;;;;9.38;6.80;;;;;;;17.19;47.06;99962.81;4495380;31;34710;-61
2022/09/23 09:41:46;;;;;;;10.95;6.93;;;;;;;17.36;46.68;99962.00;4499791;31;33978;-61
2022/09/23 09:44:30;;;;;;;9.90;6.30;;;;;;;16.87;47.44;99966.00;4487609;31;32768;-61
2022/09/23 09:47:19;;;;;;;9.65;7.00;;;;;;;17.32;47.20;99963.31;4484761;31;33831;-62
2022/09/23 09:49:50;;;;;;;12.00;6.90;;;;;;;17.11;47.47;99962.72;4500949;31;33533;-61
2022/09/23 09:52:27;;;;;;;8.82;5.93;;;;;;;17.22;46.15;99960.66;4489109;31;33599;-61
2022/09/23 09:55:16;;;;;;;8.20;5.65;;;;;;;17.70;44.78;99955.91;4497550;31;34086;-61
2022/09/23 09:57:47;;;;;;;10.70;6.93;;;;;;;17.66;44.95;99949.97;4487610;31;33587;-61
2022/09/23 10:00:37;;;;;;;9.32;6.75;;;;;;;17.54;44.49;99953.91;4495329;31;33446;-61
2022/09/23 10:03:12;;;;;;;8.60;6.15;;;;;;;17.46;45.39;99945.69;4482744;31;33379;-61
2022/09/23 10:05:42;;;;;;;10.45;6.47;;;;;;;17.61;45.80;99946.84;4495474;31;33505;-61
2022/09/23 10:08:22;;;;;;;8.27;5.97;;;;;;;17.80;44.54;99945.03;4500317;31;33302;-61
2022/09/23 10:10:54;;;;;;;8.80;5.68;;;;;;;17.76;43.38;99949.03;4497928;31;34127;-62
2022/09/23 10:13:26;;;;;;;9.10;6.28;;;;;;;17.23;44.71;99940.72;4492448;31;32735;-61
2022/09/23 10:15:55;;;;;;;11.95;7.22;;;;;;;18.12;43.50;99939.84;4494736;31;33857;-62
2022/09/23 10:18:38;;;;;;;8.93;6.05;;;;;;;18.31;44.02;99949.63;4499873;31;32586;-61
2022/09/23 10:21:14;;;;;;;12.40;6.95;;;;;;;18.54;43.72;99939.09;4489530;31;36851;-62
2022/09/23 10:24:02;;;;;;;10.18;6.28;;;;;;;18.78;42.33;99941.13;4492066;31;34906;-61
2022/09/23 10:26:33;;;;;;;7.97;5.72;;;;;;;19.03;40.26;99939.34;4499979;31;33750;-62
2022/09/23 10:29:03;;;;;;;8.35;5.30;;;;;;;18.52;40.33;99940.25;4484383;31;34049;-61
2022/09/23 10:31:33;;;;;;;8.60;5.28;;;;;;;19.10;39.66;99944.97;4486836;31;34745;-61
2022/09/23 10:34:18;;;;;;;7.80;5.43;;;;;;;18.96;39.50;99951.84;4495263;31;34911;-62
2022/09/23 10:36:57;;;;;;;9.07;5.32;;;;;;;19.04;39.24;99946.47;4489068;31;34236;-61
2022/09/23 10:48:30;;;;;;;17.77;10.90;;;;;;;19.42;38.45;99935.19;4493473;31;34191;-62
2022/09/23 10:50:58;;;;;;;7.82;4.78;;;;;;;19.46;38.99;99928.44;4488038;31;32037;-62
2022/09/23 10:53:40;;;;;;;12.68;7.00;;;;;;;19.47;38.72;99933.69;4488996;31;35255;-61
2022/09/23 10:56:21;;;;;;;24.63;15.07;;;;;;;19.38;38.33;99936.56;4472300;31;33203;-64
2022/09/23 10:59:11;;;;;;;6.15;4.20;;;;;;;19.34;37.99;99933.31;4491895;31;34152;-62
2022/09/23 11:02:16;;;;;;;11.68;7.25;;;;;;;19.28;37.05;99920.41;4496687;31;34945;-61
2022/09/23 11:04:47;;;;;;;10.45;5.43;;;;;;;19.28;38.67;99934.84;4450268;32;34587;-62
2022/09/23 11:07:34;;;;;;;13.50;7.65;;;;;;;19.17;38.21;99929.72;4487660;31;34931;-62
2022/09/23 11:10:40;;;;;;;16.73;9.75;;;;;;;19.23;38.13;99925.47;4483380;31;34693;-62
2022/09/23 11:13:23;;;;;;;8.80;6.55;;;;;;;19.18;39.47;99927.88;4488644;31;32164;-62
2022/09/23 11:16:30;;;;;;;37.63;21.70;;;;;;;19.01;39.97;99930.53;4490787;31;33509;-62
2022/09/23 11:19:50;;;;;;;8.90;6.10;;;;;;;19.08;40.65;99925.28;4494744;31;33971;-62
2022/09/23 11:22:36;;;;;;;17.92;11.32;;;;;;;19.14;40.85;99919.22;4472259;31;32702;-62
2022/09/23 11:25:22;;;;;;;17.02;10.73;;;;;;;19.15;40.14;99914.63;4496190;31;34501;-62
2022/09/23 11:28:20;;;;;;;9.82;6.22;;;;;;;19.04;40.22;99913.09;4493636;31;33101;-62
2022/09/23 11:31:11;;;;;;;28.27;17.17;;;;;;;18.81;40.44;99902.84;4492160;31;33644;-62
2022/09/23 11:33:57;;;;;;;21.75;12.18;;;;;;;18.95;40.55;99905.94;4496048;31;34055;-62
2022/09/23 11:36:29;;;;;;;24.08;15.27;;;;;;;19.05;40.86;99907.47;4490904;31;34037;-62
2022/09/23 11:38:59;;;;;;;23.15;14.65;;;;;;;18.97;41.47;99902.03;4493315;31;33180;-62
2022/09/23 11:41:29;;;;;;;21.48;13.20;;;;;;;19.09;41.79;99905.28;4492285;31;33002;-62
2022/09/23 11:44:18;;;;;;;28.67;18.08;;;;;;;19.12;41.78;99894.09;4487333;31;33937;-62
2022/09/23 11:46:55;;;;;;;9.88;6.10;;;;;;;19.17;41.80;99890.91;4481808;31;33825;-62
2022/09/23 11:49:38;;;;;;;40.22;23.48;;;;;;;18.97;41.30;99888.50;4482232;31;34549;-62
2022/09/23 11:52:35;;;;;;;25.95;16.42;;;;;;;18.53;42.67;99880.50;4489932;31;33893;-62
2022/09/23 11:55:18;;;;;;;14.50;9.52;;;;;;;18.86;42.04;99880.63;4438890;31;33853;-62
2022/09/23 11:58:13;;;;;;;9.63;5.95;;;;;;;18.59;42.76;99881.72;4482762;31;33698;-62
2022/09/23 12:01:06;;;;;;;10.38;6.37;;;;;;;18.60;42.83;99880.69;4488360;31;32938;-62
2022/09/23 12:03:36;;;;;;;10.55;6.90;;;;;;;18.71;42.36;99869.53;4493308;31;34733;-62
2022/09/23 12:06:18;;;;;;;10.93;5.85;;;;;;;18.78;42.26;99881.47;4494302;31;33656;-62
2022/09/23 12:08:53;;;;;;;9.55;5.43;;;;;;;18.69;41.33;99879.72;4492501;31;33749;-62
2022/09/23 12:12:19;;;;;;;7.45;5.35;;;;;;;18.62;42.62;99867.81;4495070;31;34108;-62
2022/09/23 12:15:17;;;;;;;9.55;6.60;;;;;;;18.70;42.11;99870.56;4381649;31;34354;-62
2022/09/23 12:17:57;;;;;;;7.22;4.85;;;;;;;18.44;41.12;99867.91;4467324;31;32999;-62
2022/09/23 12:20:36;;;;;;;7.07;4.75;;;;;;;18.97;40.65;99865.91;4495649;31;33802;-61